createdAt,value
2016-11-13T00:01:01.114Z,0
2016-11-13T00:02:10.038Z,0
2016-11-13T00:03:18.974Z,0
2016-11-13T00:04:27.913Z,0
2016-11-13T00:05:36.528Z,0
2016-11-13T00:06:45.518Z,0
2016-11-13T00:07:54.783Z,0
2016-11-13T00:09:04.364Z,0
2016-11-13T00:10:13.297Z,0
2016-11-13T00:11:22.229Z,0
2016-11-13T00:12:31.870Z,0
2016-11-13T00:13:41.127Z,0
2016-11-13T00:14:50.062Z,0
2016-11-13T00:15:58.993Z,0
2016-11-13T00:17:07.598Z,0
2016-11-13T00:18:16.310Z,0
2016-11-13T00:19:25.888Z,0
2016-11-13T00:20:35.194Z,0
2016-11-13T00:21:43.803Z,0
2016-11-13T00:22:53.068Z,0
2016-11-13T00:24:02.050Z,0
2016-11-13T00:25:10.666Z,0
2016-11-13T00:26:19.588Z,0
2016-11-13T00:27:28.524Z,0
2016-11-13T00:28:37.459Z,0
2016-11-13T00:29:46.479Z,0
2016-11-13T00:30:55.742Z,0
2016-11-13T00:32:05.003Z,0
2016-11-13T00:33:13.935Z,0
2016-11-13T00:34:22.870Z,0
2016-11-13T00:35:31.780Z,0
2016-11-13T00:36:40.400Z,0
2016-11-13T00:37:48.998Z,0
2016-11-13T00:38:57.619Z,0
2016-11-13T00:40:06.550Z,0
2016-11-13T00:41:15.518Z,0
2016-11-13T00:42:24.120Z,0
2016-11-13T00:43:33.052Z,0
2016-11-13T00:44:41.971Z,0
2016-11-13T00:45:50.901Z,0
2016-11-13T00:46:59.876Z,0
2016-11-13T00:48:08.798Z,0
2016-11-13T00:49:17.725Z,0
2016-11-13T00:50:26.345Z,0
2016-11-13T00:51:35.632Z,0
2016-11-13T00:52:44.956Z,0
2016-11-13T00:53:53.894Z,0
2016-11-13T00:55:02.833Z,0
2016-11-13T00:56:11.443Z,0
2016-11-13T00:57:20.694Z,0
2016-11-13T00:58:29.426Z,0
2016-11-13T00:59:38.681Z,0
2016-11-13T01:00:47.943Z,0
2016-11-13T01:01:56.596Z,0
2016-11-13T01:03:05.202Z,0
2016-11-13T01:04:14.598Z,0
2016-11-13T01:05:23.529Z,0
2016-11-13T01:06:32.144Z,0
2016-11-13T01:07:41.063Z,0
2016-11-13T01:08:50.322Z,0
2016-11-13T01:09:59.277Z,0
2016-11-13T01:11:08.219Z,0
2016-11-13T01:12:17.154Z,0
2016-11-13T01:13:26.071Z,0
2016-11-13T01:14:35.003Z,0
2016-11-13T01:15:44.640Z,0
2016-11-13T01:16:54.225Z,0
2016-11-13T01:18:02.869Z,0
2016-11-13T01:19:12.130Z,0
2016-11-13T01:20:21.093Z,0
2016-11-13T01:21:30.120Z,0
2016-11-13T01:22:39.059Z,0
2016-11-13T01:23:47.663Z,0
2016-11-13T01:24:56.921Z,0
2016-11-13T01:26:05.526Z,0
2016-11-13T01:27:14.477Z,0
2016-11-13T01:28:23.766Z,0
2016-11-13T01:29:32.703Z,0
2016-11-13T01:30:41.309Z,0
2016-11-13T01:31:50.243Z,0
2016-11-13T01:33:00.160Z,0
2016-11-13T01:34:08.762Z,0
2016-11-13T01:35:17.369Z,0
2016-11-13T01:36:26.619Z,0
2016-11-13T01:37:35.556Z,0
2016-11-13T01:38:44.202Z,0
2016-11-13T01:39:53.132Z,0
2016-11-13T01:41:02.055Z,0
2016-11-13T01:42:10.989Z,0
2016-11-13T01:43:19.606Z,0
2016-11-13T01:44:28.588Z,0
2016-11-13T01:45:37.530Z,0
2016-11-13T01:46:46.138Z,0
2016-11-13T01:47:55.076Z,0
2016-11-13T01:49:04.016Z,0
2016-11-13T01:50:12.715Z,0
2016-11-13T01:51:21.977Z,0
2016-11-13T01:52:30.914Z,0
2016-11-13T01:53:39.529Z,0
2016-11-13T01:54:48.140Z,0
2016-11-13T01:55:57.130Z,0
2016-11-13T01:57:06.092Z,0
2016-11-13T01:58:14.698Z,0
2016-11-13T01:59:23.345Z,0
2016-11-13T02:00:32.606Z,0
2016-11-13T02:01:44.772Z,0
2016-11-13T02:02:53.386Z,0
2016-11-13T02:04:02.315Z,0
2016-11-13T02:05:11.244Z,0
2016-11-13T02:06:20.190Z,0
2016-11-13T02:07:29.507Z,0
2016-11-13T02:08:38.123Z,0
2016-11-13T02:09:47.086Z,0
2016-11-13T02:10:56.327Z,0
2016-11-13T02:12:05.266Z,0
2016-11-13T02:13:14.593Z,0
2016-11-13T02:14:23.520Z,0
2016-11-13T02:15:32.453Z,0
2016-11-13T02:16:41.723Z,0
2016-11-13T02:17:50.333Z,0
2016-11-13T02:18:59.720Z,0
2016-11-13T02:20:08.316Z,0
2016-11-13T02:21:17.564Z,0
2016-11-13T02:22:26.536Z,0
2016-11-13T02:23:35.474Z,0
2016-11-13T02:24:45.175Z,0
2016-11-13T02:25:54.093Z,0
2016-11-13T02:27:03.035Z,0
2016-11-13T02:28:12.931Z,0
2016-11-13T02:29:21.887Z,0
2016-11-13T02:30:31.172Z,0
2016-11-13T02:31:40.114Z,0
2016-11-13T02:32:48.730Z,0
2016-11-13T02:33:57.336Z,0
2016-11-13T02:35:05.945Z,0
2016-11-13T02:36:14.924Z,0
2016-11-13T02:37:23.852Z,0
2016-11-13T02:38:32.783Z,0
2016-11-13T02:39:41.719Z,0
2016-11-13T02:40:50.327Z,0
2016-11-13T02:41:59.015Z,0
2016-11-13T02:43:07.629Z,0
2016-11-13T02:44:16.226Z,0
2016-11-13T02:45:25.158Z,0
2016-11-13T02:46:33.767Z,0
2016-11-13T02:47:42.778Z,0
2016-11-13T02:48:52.049Z,0
2016-11-13T02:50:00.989Z,0
2016-11-13T02:51:09.919Z,0
2016-11-13T02:52:18.518Z,0
2016-11-13T02:53:27.843Z,0
2016-11-13T02:54:36.782Z,0
2016-11-13T02:55:45.710Z,0
2016-11-13T02:56:55.307Z,0
2016-11-13T02:58:04.580Z,0
2016-11-13T02:59:15.207Z,0
2016-11-13T03:00:24.143Z,0
2016-11-13T03:01:32.757Z,0
2016-11-13T03:02:41.375Z,0
2016-11-13T03:03:50.310Z,0
2016-11-13T03:04:59.608Z,0
2016-11-13T03:06:08.256Z,0
2016-11-13T03:07:17.551Z,0
2016-11-13T03:08:26.165Z,0
2016-11-13T03:09:35.115Z,0
2016-11-13T03:10:44.467Z,0
2016-11-13T03:11:53.412Z,0
2016-11-13T03:13:02.356Z,0
2016-11-13T03:14:11.289Z,0
2016-11-13T03:15:19.915Z,0
2016-11-13T03:16:28.878Z,0
2016-11-13T03:17:37.486Z,0
2016-11-13T03:18:46.428Z,0
2016-11-13T03:19:55.683Z,0
2016-11-13T03:21:04.944Z,0
2016-11-13T03:22:13.858Z,0
2016-11-13T03:23:23.125Z,0
2016-11-13T03:24:31.781Z,0
2016-11-13T03:25:40.392Z,0
2016-11-13T03:26:49.324Z,0
2016-11-13T03:27:59.025Z,0
2016-11-13T03:29:07.653Z,0
2016-11-13T03:30:16.264Z,0
2016-11-13T03:31:25.207Z,0
2016-11-13T03:32:34.143Z,0
2016-11-13T03:33:43.471Z,0
2016-11-13T03:34:52.087Z,0
2016-11-13T03:36:01.022Z,0
2016-11-13T03:37:09.638Z,0
2016-11-13T03:38:18.286Z,0
2016-11-13T03:39:27.328Z,0
2016-11-13T03:40:35.937Z,0
2016-11-13T03:41:44.554Z,0
2016-11-13T03:42:53.497Z,0
2016-11-13T03:44:02.113Z,0
2016-11-13T03:45:11.428Z,0
2016-11-13T03:46:21.015Z,0
2016-11-13T03:47:30.274Z,0
2016-11-13T03:48:39.220Z,0
2016-11-13T03:49:48.483Z,0
2016-11-13T03:50:57.478Z,0
2016-11-13T03:52:06.421Z,0
2016-11-13T03:53:15.352Z,0
2016-11-13T03:54:23.963Z,0
2016-11-13T03:55:32.911Z,0
2016-11-13T03:56:41.835Z,0
2016-11-13T03:57:50.780Z,0
2016-11-13T03:58:59.723Z,0
2016-11-13T04:00:08.335Z,0
2016-11-13T04:01:17.275Z,0
2016-11-13T04:02:26.572Z,0
2016-11-13T04:03:35.187Z,0
2016-11-13T04:04:44.132Z,0
2016-11-13T04:05:53.713Z,0
2016-11-13T04:07:02.987Z,0
2016-11-13T04:08:12.328Z,0
2016-11-13T04:09:21.274Z,0
2016-11-13T04:10:30.216Z,0
2016-11-13T04:11:38.834Z,0
2016-11-13T04:12:47.449Z,0
2016-11-13T04:13:56.431Z,0
2016-11-13T04:15:05.691Z,0
2016-11-13T04:16:14.631Z,0
2016-11-13T04:17:23.899Z,0
2016-11-13T04:18:32.515Z,0
2016-11-13T04:19:41.477Z,0
2016-11-13T04:20:50.448Z,0
2016-11-13T04:21:59.064Z,0
2016-11-13T04:23:08.002Z,0
2016-11-13T04:24:16.621Z,0
2016-11-13T04:25:25.651Z,0
2016-11-13T04:26:34.918Z,0
2016-11-13T04:27:43.858Z,0
2016-11-13T04:28:52.796Z,0
2016-11-13T04:30:02.063Z,0
2016-11-13T04:31:11.075Z,0
2016-11-13T04:32:20.340Z,0
2016-11-13T04:33:29.278Z,0
2016-11-13T04:34:37.892Z,0
2016-11-13T04:35:47.153Z,0
2016-11-13T04:36:56.145Z,0
2016-11-13T04:38:05.091Z,0
2016-11-13T04:39:14.041Z,0
2016-11-13T04:40:22.651Z,0
2016-11-13T04:41:31.584Z,0
2016-11-13T04:42:40.252Z,0
2016-11-13T04:43:48.863Z,0
2016-11-13T04:44:57.805Z,0
2016-11-13T04:46:06.756Z,0
2016-11-13T04:47:15.705Z,0
2016-11-13T04:48:24.744Z,0
2016-11-13T04:49:33.402Z,0
2016-11-13T04:50:42.329Z,0
2016-11-13T04:51:50.941Z,0
2016-11-13T04:52:59.909Z,0
2016-11-13T04:54:09.276Z,0
2016-11-13T04:55:18.542Z,0
2016-11-13T04:56:27.148Z,0
2016-11-13T04:57:36.403Z,0
2016-11-13T04:58:45.679Z,0
2016-11-13T04:59:54.679Z,0
2016-11-13T05:01:03.938Z,0
2016-11-13T05:02:12.553Z,0
2016-11-13T05:03:21.180Z,0
2016-11-13T05:04:29.785Z,0
2016-11-13T05:05:39.028Z,0
2016-11-13T05:06:48.287Z,0
2016-11-13T05:07:57.227Z,0
2016-11-13T05:09:06.173Z,0
2016-11-13T05:10:14.825Z,0
2016-11-13T05:11:23.821Z,0
2016-11-13T05:12:33.118Z,0
2016-11-13T05:13:41.743Z,0
2016-11-13T05:14:50.678Z,0
2016-11-13T05:15:59.290Z,0
2016-11-13T05:17:08.328Z,0
2016-11-13T05:18:17.264Z,0
2016-11-13T05:19:26.539Z,0
2016-11-13T05:20:35.162Z,0
2016-11-13T05:21:44.105Z,0
2016-11-13T05:22:53.069Z,0
2016-11-13T05:24:02.014Z,0
2016-11-13T05:25:10.635Z,0
2016-11-13T05:26:19.585Z,0
2016-11-13T05:27:28.843Z,0
2016-11-13T05:28:37.806Z,0
2016-11-13T05:29:46.434Z,0
2016-11-13T05:30:55.409Z,0
2016-11-13T05:32:05.327Z,0
2016-11-13T05:33:13.934Z,0
2016-11-13T05:34:23.581Z,0
2016-11-13T05:35:32.528Z,0
2016-11-13T05:36:41.465Z,0
2016-11-13T05:37:50.724Z,0
2016-11-13T05:38:59.373Z,0
2016-11-13T05:40:08.655Z,0
2016-11-13T05:41:17.911Z,0
2016-11-13T05:42:26.852Z,0
2016-11-13T05:43:35.462Z,0
2016-11-13T05:44:44.076Z,0
2016-11-13T05:45:53.410Z,0
2016-11-13T05:47:02.676Z,0
2016-11-13T05:48:12.277Z,0
2016-11-13T05:49:21.221Z,0
2016-11-13T05:50:30.492Z,0
2016-11-13T05:51:39.486Z,0
2016-11-13T05:52:48.419Z,0
2016-11-13T05:53:57.047Z,0
2016-11-13T05:55:05.657Z,0
2016-11-13T05:56:14.638Z,0
2016-11-13T05:57:23.356Z,0
2016-11-13T05:58:32.934Z,0
2016-11-13T05:59:41.875Z,0
2016-11-13T06:00:50.809Z,0
2016-11-13T06:01:59.735Z,0
2016-11-13T06:03:09.303Z,0
2016-11-13T06:04:19.239Z,0
2016-11-13T06:05:27.858Z,0
2016-11-13T06:06:36.797Z,0
2016-11-13T06:07:45.737Z,0
2016-11-13T06:08:55.079Z,0
2016-11-13T06:10:04.360Z,0
2016-11-13T06:11:12.973Z,0
2016-11-13T06:12:22.247Z,0
2016-11-13T06:13:31.515Z,0
2016-11-13T06:14:41.080Z,0
2016-11-13T06:15:50.007Z,4
2016-11-13T06:16:58.665Z,4
2016-11-13T06:18:07.927Z,4
2016-11-13T06:19:16.542Z,0
2016-11-13T06:20:25.584Z,4
2016-11-13T06:21:34.199Z,4
2016-11-13T06:22:43.478Z,4
2016-11-13T06:23:52.423Z,4
2016-11-13T06:25:01.080Z,4
2016-11-13T06:26:09.752Z,8
2016-11-13T06:27:18.703Z,8
2016-11-13T06:28:27.326Z,12
2016-11-13T06:29:36.277Z,12
2016-11-13T06:30:44.900Z,16
2016-11-13T06:31:53.816Z,16
2016-11-13T06:33:02.432Z,20
2016-11-13T06:34:11.378Z,24
2016-11-13T06:35:19.998Z,28
2016-11-13T06:36:29.273Z,32
2016-11-13T06:37:38.886Z,36
2016-11-13T06:38:47.833Z,44
2016-11-13T06:39:56.776Z,52
2016-11-13T06:41:05.722Z,60
2016-11-13T06:42:14.668Z,64
2016-11-13T06:43:23.955Z,72
2016-11-13T06:44:32.897Z,80
2016-11-13T06:45:42.163Z,88
2016-11-13T06:46:51.432Z,100
2016-11-13T06:48:00.368Z,112
2016-11-13T06:49:09.768Z,124
2016-11-13T06:50:19.037Z,136
2016-11-13T06:51:28.316Z,152
2016-11-13T06:52:37.922Z,164
2016-11-13T06:53:46.864Z,180
2016-11-13T06:54:56.504Z,196
2016-11-13T06:56:05.482Z,216
2016-11-13T06:57:14.745Z,232
2016-11-13T06:58:23.686Z,244
2016-11-13T06:59:32.958Z,264
2016-11-13T07:00:42.515Z,284
2016-11-13T07:01:51.464Z,308
2016-11-13T07:03:00.402Z,328
2016-11-13T07:04:09.668Z,352
2016-11-13T07:05:18.288Z,380
2016-11-13T07:06:27.282Z,408
2016-11-13T07:07:36.236Z,440
2016-11-13T07:08:44.853Z,468
2016-11-13T07:09:53.789Z,500
2016-11-13T07:11:03.052Z,524
2016-11-13T07:12:12.624Z,552
2016-11-13T07:13:21.571Z,584
2016-11-13T07:14:30.191Z,612
2016-11-13T07:15:39.134Z,652
2016-11-13T07:16:47.745Z,692
2016-11-13T07:17:56.661Z,732
2016-11-13T07:19:05.594Z,776
2016-11-13T07:20:14.852Z,816
2016-11-13T07:21:23.475Z,860
2016-11-13T07:22:32.411Z,900
2016-11-13T07:23:41.456Z,940
2016-11-13T07:24:50.715Z,972
2016-11-13T07:25:59.667Z,1004
2016-11-13T07:27:08.940Z,1028
2016-11-13T07:28:17.564Z,1060
2016-11-13T07:29:26.236Z,1096
2016-11-13T07:30:35.492Z,1132
2016-11-13T07:31:44.433Z,1172
2016-11-13T07:32:53.383Z,1232
2016-11-13T07:34:02.320Z,1280
2016-11-13T07:35:11.267Z,1336
2016-11-13T07:36:20.206Z,1392
2016-11-13T07:37:29.481Z,1440
2016-11-13T07:38:38.423Z,1488
2016-11-13T07:39:47.046Z,1548
2016-11-13T07:40:55.662Z,1608
2016-11-13T07:42:04.611Z,1676
2016-11-13T07:43:13.236Z,1736
2016-11-13T07:44:22.167Z,1796
2016-11-13T07:45:31.110Z,1852
2016-11-13T07:46:40.159Z,1916
2016-11-13T07:47:49.103Z,1980
2016-11-13T07:48:58.357Z,2044
2016-11-13T07:50:07.947Z,2116
2016-11-13T07:51:17.196Z,2192
2016-11-13T07:52:25.907Z,2272
2016-11-13T07:53:34.863Z,2352
2016-11-13T07:54:43.802Z,2420
2016-11-13T07:55:52.729Z,2496
2016-11-13T07:57:01.990Z,2568
2016-11-13T07:58:10.977Z,2656
2016-11-13T07:59:20.571Z,2744
2016-11-13T08:00:29.187Z,2836
2016-11-13T08:01:38.123Z,2928
2016-11-13T08:02:46.745Z,3020
2016-11-13T08:03:55.461Z,3100
2016-11-13T08:05:05.085Z,3172
2016-11-13T08:06:14.030Z,3228
2016-11-13T08:07:22.656Z,3288
2016-11-13T08:08:31.644Z,3328
2016-11-13T08:09:41.251Z,3360
2016-11-13T08:10:50.562Z,3372
2016-11-13T08:11:59.504Z,3384
2016-11-13T08:13:08.123Z,3404
2016-11-13T08:14:17.074Z,3420
2016-11-13T08:15:26.094Z,3436
2016-11-13T08:16:34.710Z,3444
2016-11-13T08:17:43.660Z,3444
2016-11-13T08:18:53.256Z,3448
2016-11-13T08:20:02.227Z,3444
2016-11-13T08:21:10.902Z,3440
2016-11-13T08:22:19.512Z,3456
2016-11-13T08:23:28.786Z,3476
2016-11-13T08:24:37.725Z,3496
2016-11-13T08:25:46.349Z,3504
2016-11-13T08:26:55.634Z,3512
2016-11-13T08:28:05.227Z,3520
2016-11-13T08:29:14.174Z,3516
2016-11-13T08:30:23.118Z,3508
2016-11-13T08:31:32.053Z,3496
2016-11-13T08:32:41.053Z,3460
2016-11-13T08:33:50.316Z,3416
2016-11-13T08:34:59.591Z,3360
2016-11-13T08:36:08.544Z,3308
2016-11-13T08:37:18.143Z,3260
2016-11-13T08:38:27.727Z,3208
2016-11-13T08:39:37.325Z,3160
2016-11-13T08:40:45.940Z,3116
2016-11-13T08:41:54.560Z,3068
2016-11-13T08:43:03.824Z,3028
2016-11-13T08:44:12.442Z,2992
2016-11-13T08:45:21.391Z,2964
2016-11-13T08:46:30.653Z,2952
2016-11-13T08:47:39.594Z,2944
2016-11-13T08:48:48.211Z,2948
2016-11-13T08:49:57.495Z,2952
2016-11-13T08:51:06.112Z,2968
2016-11-13T08:52:15.060Z,2984
2016-11-13T08:53:24.328Z,3012
2016-11-13T08:54:33.283Z,3052
2016-11-13T08:55:42.523Z,3104
2016-11-13T08:56:51.143Z,3156
2016-11-13T08:58:00.078Z,3216
2016-11-13T08:59:08.696Z,3280
2016-11-13T09:00:17.351Z,3352
2016-11-13T09:01:26.730Z,3420
2016-11-13T09:02:35.356Z,3500
2016-11-13T09:03:43.975Z,3584
2016-11-13T09:04:53.234Z,3680
2016-11-13T09:06:02.831Z,3792
2016-11-13T09:07:12.136Z,3920
2016-11-13T09:08:21.093Z,4064
2016-11-13T09:09:30.031Z,4216
2016-11-13T09:10:38.643Z,4368
2016-11-13T09:11:47.918Z,4512
2016-11-13T09:12:56.967Z,4656
2016-11-13T09:14:05.579Z,4776
2016-11-13T09:15:14.207Z,4908
2016-11-13T09:16:23.556Z,5028
2016-11-13T09:17:33.146Z,5132
2016-11-13T09:18:42.159Z,5236
2016-11-13T09:19:50.771Z,5348
2016-11-13T09:20:59.379Z,5460
2016-11-13T09:22:08.973Z,5580
2016-11-13T09:23:18.279Z,5712
2016-11-13T09:24:27.941Z,5844
2016-11-13T09:25:37.447Z,5992
2016-11-13T09:26:46.383Z,6148
2016-11-13T09:27:55.329Z,6292
2016-11-13T09:29:04.596Z,6436
2016-11-13T09:30:13.911Z,6560
2016-11-13T09:31:22.862Z,6672
2016-11-13T09:32:31.488Z,6760
2016-11-13T09:33:40.471Z,6832
2016-11-13T09:34:49.456Z,6884
2016-11-13T09:35:58.799Z,6912
2016-11-13T09:37:08.109Z,6920
2016-11-13T09:38:17.055Z,6912
2016-11-13T09:39:26.339Z,6892
2016-11-13T09:40:34.955Z,6864
2016-11-13T09:41:43.590Z,6812
2016-11-13T09:42:52.544Z,6780
2016-11-13T09:44:01.164Z,6752
2016-11-13T09:45:09.784Z,6708
2016-11-13T09:46:18.715Z,6684
2016-11-13T09:47:28.693Z,6656
2016-11-13T09:48:37.634Z,6640
2016-11-13T09:49:46.593Z,6616
2016-11-13T09:50:55.203Z,6596
2016-11-13T09:52:04.146Z,6564
2016-11-13T09:53:12.759Z,6532
2016-11-13T09:54:22.343Z,6492
2016-11-13T09:55:31.292Z,6464
2016-11-13T09:56:40.234Z,6420
2016-11-13T09:57:49.173Z,6396
2016-11-13T09:58:58.799Z,6368
2016-11-13T10:00:07.743Z,6356
2016-11-13T10:01:16.691Z,6344
2016-11-13T10:02:25.955Z,6324
2016-11-13T10:03:34.918Z,6316
2016-11-13T10:04:44.214Z,6316
2016-11-13T10:05:52.825Z,6316
2016-11-13T10:07:01.763Z,6320
2016-11-13T10:08:10.387Z,6336
2016-11-13T10:09:20.320Z,6348
2016-11-13T10:10:29.881Z,6356
2016-11-13T10:11:39.156Z,6360
2016-11-13T10:12:47.777Z,6348
2016-11-13T10:13:57.053Z,6332
2016-11-13T10:15:06.034Z,6316
2016-11-13T10:16:14.700Z,6296
2016-11-13T10:17:23.959Z,6260
2016-11-13T10:18:32.579Z,6216
2016-11-13T10:19:41.197Z,6164
2016-11-13T10:20:50.150Z,6104
2016-11-13T10:21:59.771Z,6056
2016-11-13T10:23:09.039Z,6000
2016-11-13T10:24:17.657Z,5964
2016-11-13T10:25:26.601Z,5936
2016-11-13T10:26:35.866Z,5928
2016-11-13T10:27:44.814Z,5920
2016-11-13T10:28:53.752Z,5928
2016-11-13T10:30:02.693Z,5940
2016-11-13T10:31:11.964Z,5960
2016-11-13T10:32:20.581Z,5992
2016-11-13T10:33:29.388Z,6016
2016-11-13T10:34:38.036Z,6060
2016-11-13T10:35:48.147Z,6104
2016-11-13T10:36:57.491Z,6148
2016-11-13T10:38:06.142Z,6188
2016-11-13T10:39:15.510Z,6240
2016-11-13T10:40:24.789Z,6284
2016-11-13T10:41:34.057Z,6352
2016-11-13T10:42:43.329Z,6428
2016-11-13T10:43:52.276Z,6508
2016-11-13T10:45:01.200Z,6592
2016-11-13T10:46:10.135Z,6652
2016-11-13T10:47:19.073Z,6720
2016-11-13T10:48:28.350Z,6788
2016-11-13T10:49:36.977Z,6860
2016-11-13T10:50:46.005Z,6936
2016-11-13T10:51:54.956Z,7040
2016-11-13T10:53:03.567Z,7148
2016-11-13T10:54:13.147Z,7248
2016-11-13T10:55:22.100Z,7336
2016-11-13T10:56:31.391Z,7400
2016-11-13T10:57:40.650Z,7444
2016-11-13T10:58:49.284Z,7460
2016-11-13T10:59:58.548Z,7468
2016-11-13T11:01:07.490Z,7480
2016-11-13T11:02:16.432Z,7488
2016-11-13T11:03:25.369Z,7504
2016-11-13T11:04:34.647Z,7520
2016-11-13T11:05:43.943Z,7536
2016-11-13T11:06:52.886Z,7564
2016-11-13T11:08:02.128Z,7576
2016-11-13T11:09:11.473Z,7580
2016-11-13T11:10:20.744Z,7552
2016-11-13T11:11:29.363Z,7524
2016-11-13T11:12:38.309Z,7516
2016-11-13T11:13:48.245Z,7532
2016-11-13T11:14:57.516Z,7556
2016-11-13T11:16:06.781Z,7600
2016-11-13T11:17:15.721Z,7648
2016-11-13T11:18:24.662Z,7688
2016-11-13T11:19:34.269Z,7748
2016-11-13T11:20:43.212Z,7824
2016-11-13T11:21:52.486Z,7904
2016-11-13T11:23:01.112Z,7992
2016-11-13T11:24:09.737Z,8056
2016-11-13T11:25:18.798Z,8108
2016-11-13T11:26:27.840Z,8132
2016-11-13T11:27:36.791Z,8136
2016-11-13T11:28:45.765Z,8112
2016-11-13T11:29:54.700Z,8040
2016-11-13T11:31:03.740Z,7928
2016-11-13T11:32:12.364Z,7788
2016-11-13T11:33:20.980Z,7656
2016-11-13T11:34:29.604Z,7536
2016-11-13T11:35:38.216Z,7440
2016-11-13T11:36:47.566Z,7336
2016-11-13T11:37:56.512Z,7224
2016-11-13T11:39:05.457Z,7080
2016-11-13T11:40:14.413Z,6920
2016-11-13T11:41:23.040Z,6744
2016-11-13T11:42:32.665Z,6544
2016-11-13T11:43:41.613Z,6356
2016-11-13T11:44:50.225Z,6180
2016-11-13T11:45:58.854Z,6016
2016-11-13T11:47:07.803Z,5860
2016-11-13T11:48:17.451Z,5684
2016-11-13T11:49:26.744Z,5532
2016-11-13T11:50:36.023Z,5392
2016-11-13T11:51:44.972Z,5284
2016-11-13T11:52:53.596Z,5208
2016-11-13T11:54:02.878Z,5140
2016-11-13T11:55:11.495Z,5080
2016-11-13T11:56:21.083Z,5012
2016-11-13T11:57:30.364Z,4940
2016-11-13T11:58:38.987Z,4864
2016-11-13T11:59:48.033Z,4764
2016-11-13T12:00:57.307Z,4668
2016-11-13T12:02:05.919Z,4588
2016-11-13T12:03:14.529Z,4524
2016-11-13T12:04:23.474Z,4488
2016-11-13T12:05:33.238Z,4448
2016-11-13T12:06:42.187Z,4420
2016-11-13T12:07:50.810Z,4380
2016-11-13T12:08:59.764Z,4316
2016-11-13T12:10:09.047Z,4232
2016-11-13T12:11:18.337Z,4160
2016-11-13T12:12:27.925Z,4088
2016-11-13T12:13:36.551Z,4036
2016-11-13T12:14:45.833Z,3988
2016-11-13T12:15:54.784Z,3968
2016-11-13T12:17:03.730Z,3944
2016-11-13T12:18:12.396Z,3924
2016-11-13T12:19:21.345Z,3892
2016-11-13T12:20:29.957Z,3888
2016-11-13T12:21:38.910Z,3892
2016-11-13T12:22:47.914Z,3912
2016-11-13T12:23:56.880Z,3888
2016-11-13T12:25:06.187Z,3860
2016-11-13T12:26:15.456Z,3832
2016-11-13T12:27:24.077Z,3816
2016-11-13T12:28:33.096Z,3812
2016-11-13T12:29:42.047Z,3796
2016-11-13T12:30:51.309Z,3776
2016-11-13T12:31:59.934Z,3784
2016-11-13T12:33:08.881Z,3808
2016-11-13T12:34:17.799Z,3856
2016-11-13T12:35:26.418Z,3920
2016-11-13T12:36:35.367Z,3948
2016-11-13T12:37:44.309Z,4000
2016-11-13T12:38:53.259Z,4044
2016-11-13T12:40:02.557Z,4092
2016-11-13T12:41:11.496Z,4144
2016-11-13T12:42:20.438Z,4244
2016-11-13T12:43:29.398Z,4332
2016-11-13T12:44:38.008Z,4424
2016-11-13T12:45:46.732Z,4552
2016-11-13T12:46:55.351Z,4644
2016-11-13T12:48:03.980Z,4732
2016-11-13T12:49:12.588Z,4824
2016-11-13T12:50:21.868Z,4916
2016-11-13T12:51:30.819Z,5008
2016-11-13T12:52:39.437Z,5100
2016-11-13T12:53:48.701Z,5172
2016-11-13T12:54:57.642Z,5248
2016-11-13T12:56:06.255Z,5308
2016-11-13T12:57:15.813Z,5336
2016-11-13T12:58:24.430Z,5312
2016-11-13T12:59:33.707Z,5260
2016-11-13T13:00:42.662Z,5180
2016-11-13T13:01:51.291Z,5128
2016-11-13T13:03:01.227Z,5088
2016-11-13T13:04:10.508Z,5076
2016-11-13T13:05:20.098Z,5056
2016-11-13T13:06:29.071Z,5008
2016-11-13T13:07:37.702Z,4936
2016-11-13T13:08:46.423Z,4864
2016-11-13T13:09:55.692Z,4776
2016-11-13T13:11:04.630Z,4676
2016-11-13T13:12:13.587Z,4588
2016-11-13T13:13:22.539Z,4508
2016-11-13T13:14:31.534Z,4420
2016-11-13T13:15:40.181Z,4348
2016-11-13T13:16:49.132Z,4248
2016-11-13T13:17:58.411Z,4132
2016-11-13T13:19:07.356Z,3960
2016-11-13T13:20:15.972Z,3828
2016-11-13T13:21:24.917Z,3688
2016-11-13T13:22:33.851Z,3564
2016-11-13T13:23:42.479Z,3552
2016-11-13T13:24:51.421Z,3568
2016-11-13T13:26:00.377Z,3544
2016-11-13T13:27:08.996Z,3500
2016-11-13T13:28:17.627Z,3500
2016-11-13T13:29:26.247Z,3508
2016-11-13T13:30:35.195Z,3536
2016-11-13T13:31:44.786Z,3528
2016-11-13T13:32:53.411Z,3464
2016-11-13T13:34:02.034Z,3444
2016-11-13T13:35:10.981Z,3412
2016-11-13T13:36:19.918Z,3408
2016-11-13T13:37:29.613Z,3440
2016-11-13T13:38:38.572Z,3428
2016-11-13T13:39:47.831Z,3384
2016-11-13T13:40:57.103Z,3392
2016-11-13T13:42:06.045Z,3396
2016-11-13T13:43:15.403Z,3392
2016-11-13T13:44:24.352Z,3392
2016-11-13T13:45:33.301Z,3380
2016-11-13T13:46:42.254Z,3368
2016-11-13T13:47:50.879Z,3348
2016-11-13T13:48:59.822Z,3328
2016-11-13T13:50:08.768Z,3304
2016-11-13T13:51:17.711Z,3284
2016-11-13T13:52:26.323Z,3248
2016-11-13T13:53:34.935Z,3220
2016-11-13T13:54:44.512Z,3192
2016-11-13T13:55:53.458Z,3164
2016-11-13T13:57:02.082Z,3124
2016-11-13T13:58:10.714Z,3104
2016-11-13T13:59:19.348Z,3080
2016-11-13T14:00:28.916Z,3060
2016-11-13T14:01:38.184Z,3040
2016-11-13T14:02:47.444Z,3036
2016-11-13T14:03:56.383Z,3024
2016-11-13T14:05:06.300Z,3008
2016-11-13T14:06:15.371Z,2984
2016-11-13T14:07:23.985Z,2964
2016-11-13T14:08:32.928Z,2940
2016-11-13T14:09:41.539Z,2920
2016-11-13T14:10:50.484Z,2900
2016-11-13T14:11:59.778Z,2872
2016-11-13T14:13:08.720Z,2832
2016-11-13T14:14:17.989Z,2796
2016-11-13T14:15:27.269Z,2764
2016-11-13T14:16:36.219Z,2728
2016-11-13T14:17:45.501Z,2688
2016-11-13T14:18:54.112Z,2644
2016-11-13T14:20:02.718Z,2600
2016-11-13T14:21:12.016Z,2560
2016-11-13T14:22:21.645Z,2524
2016-11-13T14:23:30.920Z,2484
2016-11-13T14:24:39.871Z,2444
2016-11-13T14:25:48.806Z,2404
2016-11-13T14:26:58.227Z,2368
2016-11-13T14:28:07.497Z,2340
2016-11-13T14:29:17.108Z,2308
2016-11-13T14:30:25.722Z,2280
2016-11-13T14:31:34.666Z,2252
2016-11-13T14:32:43.610Z,2220
2016-11-13T14:33:52.869Z,2184
2016-11-13T14:35:02.114Z,2148
2016-11-13T14:36:11.391Z,2116
2016-11-13T14:37:20.333Z,2080
2016-11-13T14:38:29.307Z,2056
2016-11-13T14:39:38.246Z,2024
2016-11-13T14:40:47.193Z,1984
2016-11-13T14:41:56.465Z,1944
2016-11-13T14:43:05.416Z,1900
2016-11-13T14:44:14.364Z,1864
2016-11-13T14:45:23.619Z,1828
2016-11-13T14:46:32.549Z,1800
2016-11-13T14:47:41.853Z,1772
2016-11-13T14:48:50.790Z,1752
2016-11-13T14:50:00.046Z,1724
2016-11-13T14:51:09.316Z,1696
2016-11-13T14:52:18.312Z,1660
2016-11-13T14:53:27.258Z,1624
2016-11-13T14:54:36.518Z,1580
2016-11-13T14:55:45.456Z,1536
2016-11-13T14:56:54.397Z,1488
2016-11-13T14:58:04.059Z,1448
2016-11-13T14:59:12.674Z,1412
2016-11-13T15:00:21.943Z,1376
2016-11-13T15:01:30.557Z,1336
2016-11-13T15:02:39.824Z,1300
2016-11-13T15:03:48.447Z,1260
2016-11-13T15:04:57.067Z,1224
2016-11-13T15:06:06.652Z,1184
2016-11-13T15:07:15.608Z,1148
2016-11-13T15:08:25.217Z,1104
2016-11-13T15:09:34.162Z,1064
2016-11-13T15:10:43.154Z,1024
2016-11-13T15:11:52.420Z,984
2016-11-13T15:13:02.005Z,940
2016-11-13T15:14:11.283Z,896
2016-11-13T15:15:19.951Z,856
2016-11-13T15:16:29.214Z,816
2016-11-13T15:17:37.868Z,776
2016-11-13T15:18:46.806Z,736
2016-11-13T15:19:56.073Z,692
2016-11-13T15:21:05.011Z,656
2016-11-13T15:22:14.306Z,616
2016-11-13T15:23:23.257Z,580
2016-11-13T15:24:31.878Z,540
2016-11-13T15:25:40.828Z,508
2016-11-13T15:26:50.466Z,472
2016-11-13T15:27:59.084Z,436
2016-11-13T15:29:08.360Z,404
2016-11-13T15:30:17.308Z,372
2016-11-13T15:31:26.264Z,344
2016-11-13T15:32:35.282Z,312
2016-11-13T15:33:44.549Z,284
2016-11-13T15:34:54.152Z,260
2016-11-13T15:36:03.423Z,236
2016-11-13T15:37:12.074Z,212
2016-11-13T15:38:21.155Z,192
2016-11-13T15:39:30.097Z,168
2016-11-13T15:40:39.356Z,148
2016-11-13T15:41:48.943Z,132
2016-11-13T15:42:58.208Z,120
2016-11-13T15:44:07.802Z,104
2016-11-13T15:45:16.774Z,88
2016-11-13T15:46:25.705Z,80
2016-11-13T15:47:34.319Z,68
2016-11-13T15:48:43.253Z,56
2016-11-13T15:49:52.554Z,48
2016-11-13T15:51:02.142Z,40
2016-11-13T15:52:11.077Z,32
2016-11-13T15:53:20.040Z,32
2016-11-13T15:54:29.302Z,24
2016-11-13T15:55:38.699Z,20
2016-11-13T15:56:47.321Z,16
2016-11-13T15:57:56.592Z,12
2016-11-13T15:59:05.204Z,12
2016-11-13T16:00:13.831Z,8
2016-11-13T16:01:23.132Z,8
2016-11-13T16:02:31.784Z,8